Graymont, Illinois
Current Conditions -  °F | °C
As of 2:55 PM on Saturday 25 Oct 2014 (Local Time) from KPNT Reporting Station
Clear Clear  
Wind Chill: 74°   Ceiling: Unl
Heat Index: 74°   Visibility: 10mi
Dew Point: 41°   Wind: 14mph
Humidity: 31%   Direction: 290°WNW
Pressure: 29.97"   Gusts: NA
Location:  40.88°N, 88.78°W
Report Text: KPNT 251955Z AUTO 29012KT 10SM CLR 24/05 A2997 RMK AO2 T02350052
Loading
Personal Weather Stations






























Interactive Weather Map
Tropical Storm Tracking
New forecast layout! Learn more

10-Day Weather Forecast

Advertisements
Track Severe Weather on mobile